createdAt,value
2019-03-25T00:00:50.328Z,312.16
2019-03-25T00:01:50.331Z,305.98
2019-03-25T00:02:50.316Z,312.41
2019-03-25T00:03:50.316Z,311.61
2019-03-25T00:04:50.283Z,311.33
2019-03-25T00:05:50.319Z,305.79
2019-03-25T00:06:50.268Z,311.75
2019-03-25T00:07:50.240Z,306.55
2019-03-25T00:09:03.213Z,306.59
2019-03-25T00:09:51.229Z,306.37
2019-03-25T00:10:50.223Z,306.62
2019-03-25T00:11:50.230Z,306.68
2019-03-25T00:12:50.191Z,306.60
2019-03-25T00:13:50.179Z,306.40
2019-03-25T00:14:50.171Z,306.61
2019-03-25T00:15:50.218Z,306.70
2019-03-25T00:16:50.147Z,312.06
2019-03-25T00:17:50.146Z,312.04
2019-03-25T00:18:50.120Z,312.30
2019-03-25T00:19:50.126Z,312.05
2019-03-25T00:20:50.106Z,311.42
2019-03-25T00:21:50.154Z,306.28
2019-03-25T00:22:50.104Z,311.43
2019-03-25T00:23:50.085Z,306.12
2019-03-25T00:24:50.065Z,311.32
2019-03-25T00:25:50.062Z,311.53
2019-03-25T00:26:50.046Z,311.83
2019-03-25T00:27:50.055Z,305.97
2019-03-25T00:28:50.051Z,311.26
2019-03-25T00:29:50.014Z,306.12
2019-03-25T00:30:50.008Z,311.49
2019-03-25T00:31:50.007Z,305.95
2019-03-25T00:32:50.012Z,311.76
2019-03-25T00:33:49.995Z,305.76
2019-03-25T00:34:49.977Z,311.10
2019-03-25T00:35:49.944Z,310.98
2019-03-25T00:36:49.941Z,312.12
2019-03-25T00:37:49.978Z,311.36
2019-03-25T00:38:49.937Z,311.51
2019-03-25T00:39:49.929Z,305.49
2019-03-25T00:40:49.910Z,305.72
2019-03-25T00:41:49.902Z,306.26
2019-03-25T00:42:49.914Z,311.08
2019-03-25T00:43:49.897Z,305.62
2019-03-25T00:44:49.863Z,311.03
2019-03-25T00:45:49.852Z,305.63
2019-03-25T00:46:49.867Z,311.17
2019-03-25T00:47:49.849Z,311.19
2019-03-25T00:48:49.859Z,311.12
2019-03-25T00:49:49.841Z,311.29
2019-03-25T00:50:49.819Z,311.31
2019-03-25T00:51:49.790Z,311.13
2019-03-25T00:52:49.796Z,310.50
2019-03-25T00:53:49.764Z,310.85
2019-03-25T00:54:50.408Z,311.17
2019-03-25T00:55:49.744Z,306.04
2019-03-25T00:56:49.747Z,310.77
2019-03-25T00:57:49.734Z,305.48
2019-03-25T00:58:49.746Z,311.15
2019-03-25T00:59:49.708Z,305.90
2019-03-25T01:00:49.713Z,306.68
2019-03-25T01:01:49.716Z,306.64
2019-03-25T01:02:49.677Z,306.21
2019-03-25T01:03:49.653Z,306.51
2019-03-25T01:04:49.655Z,306.18
2019-03-25T01:05:49.644Z,306.49
2019-03-25T01:06:49.646Z,305.98
2019-03-25T01:07:49.622Z,305.86
2019-03-25T01:08:49.610Z,305.41
2019-03-25T01:09:49.593Z,305.90
2019-03-25T01:10:49.594Z,305.40
2019-03-25T01:11:49.615Z,305.96
2019-03-25T01:12:49.589Z,305.12
2019-03-25T01:13:49.548Z,305.30
2019-03-25T01:14:49.579Z,305.91
2019-03-25T01:15:49.546Z,305.73
2019-03-25T01:16:49.537Z,306.00
2019-03-25T01:17:49.509Z,305.60
2019-03-25T01:18:49.515Z,305.78
2019-03-25T01:19:49.499Z,305.77
2019-03-25T01:20:49.499Z,305.20
2019-03-25T01:21:49.502Z,305.17
2019-03-25T01:22:49.481Z,305.85
2019-03-25T01:23:49.456Z,305.30
2019-03-25T01:25:00.970Z,306.08
2019-03-25T01:25:50.453Z,305.19
2019-03-25T01:26:49.426Z,305.17
2019-03-25T01:27:49.427Z,305.27
2019-03-25T01:28:49.419Z,305.49
2019-03-25T01:29:49.390Z,305.40
2019-03-25T01:30:49.369Z,305.53
2019-03-25T01:31:49.403Z,304.95
2019-03-25T01:32:49.389Z,305.37
2019-03-25T01:33:49.362Z,305.01
2019-03-25T01:34:49.389Z,305.16
2019-03-25T01:35:49.323Z,305.13
2019-03-25T01:36:49.330Z,304.94
2019-03-25T01:37:49.330Z,305.36
2019-03-25T01:38:49.289Z,305.51
2019-03-25T01:39:49.304Z,305.38
2019-03-25T01:40:49.285Z,305.38
2019-03-25T01:41:49.318Z,305.02
2019-03-25T01:42:49.277Z,305.30
2019-03-25T01:43:49.248Z,305.56
2019-03-25T01:44:49.235Z,305.65
2019-03-25T01:45:49.227Z,305.82
2019-03-25T01:46:49.211Z,306.26
2019-03-25T01:47:49.225Z,306.58
2019-03-25T01:48:49.206Z,305.83
2019-03-25T01:49:49.194Z,305.75
2019-03-25T01:50:49.172Z,306.03
2019-03-25T01:51:49.160Z,305.93
2019-03-25T01:52:49.179Z,306.06
2019-03-25T01:53:49.134Z,305.83
2019-03-25T01:54:49.149Z,305.89
2019-03-25T01:55:49.118Z,305.45
2019-03-25T01:56:49.113Z,305.16
2019-03-25T01:57:49.130Z,305.50
2019-03-25T01:58:49.084Z,305.09
2019-03-25T01:59:49.077Z,305.28
2019-03-25T02:00:49.074Z,305.18
2019-03-25T02:01:49.059Z,305.68
2019-03-25T02:02:49.052Z,305.12
2019-03-25T02:03:49.081Z,305.31
2019-03-25T02:04:49.018Z,305.20
2019-03-25T02:05:49.009Z,305.42
2019-03-25T02:06:49.009Z,305.28
2019-03-25T02:07:48.997Z,305.82
2019-03-25T02:08:49.013Z,305.75
2019-03-25T02:09:48.959Z,305.90
2019-03-25T02:10:48.955Z,305.72
2019-03-25T02:11:48.957Z,305.98
2019-03-25T02:12:48.955Z,306.06
2019-03-25T02:13:48.929Z,305.88
2019-03-25T02:14:48.964Z,306.12
2019-03-25T02:15:48.903Z,305.67
2019-03-25T02:16:48.905Z,305.82
2019-03-25T02:17:48.899Z,306.41
2019-03-25T02:18:48.875Z,305.37
2019-03-25T02:19:48.860Z,305.88
2019-03-25T02:20:48.882Z,305.51
2019-03-25T02:21:48.844Z,305.65
2019-03-25T02:22:48.993Z,305.13
2019-03-25T02:23:48.851Z,304.79
2019-03-25T02:24:48.803Z,304.90
2019-03-25T02:25:48.833Z,305.10
2019-03-25T02:26:48.788Z,305.08
2019-03-25T02:27:48.779Z,304.84
2019-03-25T02:28:48.767Z,305.22
2019-03-25T02:29:48.751Z,304.69
2019-03-25T02:30:48.767Z,305.03
2019-03-25T02:31:48.725Z,305.83
2019-03-25T02:32:48.718Z,305.96
2019-03-25T02:33:48.711Z,305.73
2019-03-25T02:34:48.694Z,306.17
2019-03-25T02:35:48.712Z,307.04
2019-03-25T02:36:48.689Z,306.31
2019-03-25T02:37:48.698Z,306.29
2019-03-25T02:38:48.652Z,306.14
2019-03-25T02:39:48.647Z,305.15
2019-03-25T02:40:48.644Z,305.55
2019-03-25T02:41:48.664Z,305.91
2019-03-25T02:42:48.651Z,306.04
2019-03-25T02:43:48.629Z,306.14
2019-03-25T02:44:48.606Z,306.46
2019-03-25T02:45:48.590Z,306.22
2019-03-25T02:46:48.587Z,305.94
2019-03-25T02:47:48.566Z,305.78
2019-03-25T02:48:48.568Z,306.18
2019-03-25T02:49:48.541Z,306.04
2019-03-25T02:50:48.532Z,306.12
2019-03-25T02:51:48.559Z,306.00
2019-03-25T02:52:48.523Z,305.16
2019-03-25T02:53:48.563Z,305.21
2019-03-25T02:54:48.527Z,304.74
2019-03-25T02:55:48.487Z,305.06
2019-03-25T02:56:48.478Z,305.98
2019-03-25T02:57:48.457Z,305.97
2019-03-25T02:58:48.497Z,306.32
2019-03-25T02:59:48.453Z,305.90
2019-03-25T03:00:48.459Z,305.47
2019-03-25T03:01:48.424Z,305.33
2019-03-25T03:02:48.421Z,305.21
2019-03-25T03:03:48.407Z,305.02
2019-03-25T03:04:48.414Z,305.30
2019-03-25T03:05:48.387Z,305.45
2019-03-25T03:06:48.370Z,305.18
2019-03-25T03:07:48.356Z,305.70
2019-03-25T03:08:48.340Z,305.45
2019-03-25T03:09:48.396Z,305.31
2019-03-25T03:10:48.327Z,305.30
2019-03-25T03:11:48.349Z,305.65
2019-03-25T03:12:48.315Z,305.78
2019-03-25T03:13:48.296Z,305.57
2019-03-25T03:14:48.281Z,305.35
2019-03-25T03:15:48.288Z,305.48
2019-03-25T03:16:48.291Z,305.26
2019-03-25T03:17:48.264Z,306.07
2019-03-25T03:18:48.244Z,305.74
2019-03-25T03:19:48.233Z,305.50
2019-03-25T03:20:48.264Z,305.28
2019-03-25T03:21:48.243Z,305.34
2019-03-25T03:22:48.295Z,305.18
2019-03-25T03:23:48.202Z,305.75
2019-03-25T03:24:48.177Z,305.62
2019-03-25T03:25:57.097Z,305.73
2019-03-25T03:26:49.188Z,305.83
2019-03-25T03:27:48.152Z,306.37
2019-03-25T03:28:48.144Z,306.22
2019-03-25T03:29:48.163Z,305.92
2019-03-25T03:30:48.144Z,305.92
2019-03-25T03:31:48.124Z,305.77
2019-03-25T03:32:48.104Z,306.09
2019-03-25T03:33:48.093Z,305.73
2019-03-25T03:34:48.088Z,306.15
2019-03-25T03:35:48.058Z,306.10
2019-03-25T03:36:48.099Z,306.16
2019-03-25T03:37:48.344Z,305.94
2019-03-25T03:38:48.034Z,305.84
2019-03-25T03:39:48.050Z,305.84
2019-03-25T03:40:48.032Z,305.92
2019-03-25T03:41:48.023Z,305.48
2019-03-25T03:42:47.989Z,306.19
2019-03-25T03:43:48.009Z,306.15
2019-03-25T03:44:47.982Z,306.23
2019-03-25T03:45:48.918Z,305.95
2019-03-25T03:46:48.011Z,305.68
2019-03-25T03:47:47.941Z,306.45
2019-03-25T03:48:47.934Z,306.30
2019-03-25T03:49:48.032Z,305.85
2019-03-25T03:50:48.011Z,306.03
2019-03-25T03:51:47.946Z,305.61
2019-03-25T03:52:47.891Z,305.71
2019-03-25T03:53:47.875Z,305.69
2019-03-25T03:54:47.868Z,305.76
2019-03-25T03:55:47.868Z,305.60
2019-03-25T03:56:47.859Z,305.59
2019-03-25T03:57:47.862Z,306.09
2019-03-25T03:58:47.821Z,307.17
2019-03-25T03:59:47.864Z,307.81
2019-03-25T04:00:47.810Z,306.89
2019-03-25T04:01:47.789Z,306.47
2019-03-25T04:02:47.804Z,305.44
2019-03-25T04:03:47.809Z,305.99
2019-03-25T04:04:47.776Z,305.84
2019-03-25T04:05:47.762Z,306.01
2019-03-25T04:06:47.757Z,305.74
2019-03-25T04:07:47.744Z,305.88
2019-03-25T04:08:48.300Z,305.52
2019-03-25T04:09:48.274Z,305.68
2019-03-25T04:10:47.696Z,306.00
2019-03-25T04:11:47.702Z,306.28
2019-03-25T04:12:47.704Z,305.65
2019-03-25T04:13:47.662Z,306.10
2019-03-25T04:14:47.677Z,311.19
2019-03-25T04:15:47.650Z,311.50
2019-03-25T04:16:47.654Z,311.34
2019-03-25T04:17:47.750Z,311.28
2019-03-25T04:18:49.691Z,311.17
2019-03-25T04:19:47.611Z,312.01
2019-03-25T04:20:47.622Z,312.07
2019-03-25T04:21:47.590Z,312.23
2019-03-25T04:22:47.601Z,312.06
2019-03-25T04:23:47.573Z,312.10
2019-03-25T04:24:47.552Z,306.77
2019-03-25T04:25:47.592Z,311.64
2019-03-25T04:26:47.542Z,311.26
2019-03-25T04:27:47.538Z,311.80
2019-03-25T04:28:48.199Z,306.23
2019-03-25T04:29:47.524Z,311.30
2019-03-25T04:30:47.562Z,312.35
2019-03-25T04:31:47.511Z,311.64
2019-03-25T04:32:47.499Z,312.11
2019-03-25T04:33:47.473Z,311.63
2019-03-25T04:34:47.465Z,305.85
2019-03-25T04:35:47.500Z,311.60
2019-03-25T04:36:47.425Z,306.81
2019-03-25T04:37:47.448Z,312.00
2019-03-25T04:38:47.436Z,306.84
2019-03-25T04:39:47.417Z,311.40
2019-03-25T04:40:47.431Z,311.69
2019-03-25T04:41:47.370Z,311.28
2019-03-25T04:42:47.375Z,311.39
2019-03-25T04:43:47.366Z,311.21
2019-03-25T04:44:47.445Z,311.52
2019-03-25T04:45:47.371Z,311.20
2019-03-25T04:46:47.342Z,310.80
2019-03-25T04:47:47.340Z,311.07
2019-03-25T04:48:47.353Z,311.26
2019-03-25T04:49:47.296Z,311.37
2019-03-25T04:50:47.333Z,311.12
2019-03-25T04:51:47.350Z,311.44
2019-03-25T04:52:47.254Z,311.39
2019-03-25T04:53:47.328Z,311.33
2019-03-25T04:54:47.262Z,310.90
2019-03-25T04:55:47.258Z,311.30
2019-03-25T04:56:47.254Z,310.80
2019-03-25T04:57:47.203Z,310.82
2019-03-25T04:58:47.197Z,310.95
2019-03-25T04:59:47.218Z,310.65
2019-03-25T05:00:47.167Z,311.29
2019-03-25T05:01:47.168Z,310.86
2019-03-25T05:02:47.151Z,311.88
2019-03-25T05:03:47.146Z,311.99
2019-03-25T05:04:47.210Z,306.27
2019-03-25T05:05:47.137Z,311.11
2019-03-25T05:06:47.130Z,306.25
2019-03-25T05:07:47.106Z,305.88
2019-03-25T05:08:47.119Z,305.31
2019-03-25T05:09:47.704Z,306.22
2019-03-25T05:10:47.121Z,311.50
2019-03-25T05:11:47.074Z,311.41
2019-03-25T05:12:47.052Z,311.38
2019-03-25T05:13:47.044Z,312.32
2019-03-25T05:14:47.070Z,312.39
2019-03-25T05:15:47.024Z,311.44
2019-03-25T05:16:47.092Z,311.94
2019-03-25T05:17:47.090Z,312.01
2019-03-25T05:18:47.013Z,312.21
2019-03-25T05:19:46.988Z,312.56
2019-03-25T05:20:46.971Z,312.87
2019-03-25T05:21:46.988Z,312.86
2019-03-25T05:22:46.957Z,313.07
2019-03-25T05:23:46.985Z,311.84
2019-03-25T05:24:46.933Z,312.66
2019-03-25T05:25:46.916Z,312.76
2019-03-25T05:26:51.222Z,311.77
2019-03-25T05:27:46.894Z,311.98
2019-03-25T05:28:47.034Z,306.69
2019-03-25T05:29:46.909Z,310.98
2019-03-25T05:30:46.893Z,306.18
2019-03-25T05:31:46.877Z,311.49
2019-03-25T05:32:46.854Z,306.62
2019-03-25T05:33:46.835Z,311.90
2019-03-25T05:34:47.398Z,305.49
2019-03-25T05:35:47.002Z,311.17
2019-03-25T05:36:46.875Z,305.90
2019-03-25T05:37:46.788Z,305.94
2019-03-25T05:38:46.785Z,306.28
2019-03-25T05:39:46.973Z,312.87
2019-03-25T05:40:46.756Z,305.93
2019-03-25T05:41:46.789Z,311.84
2019-03-25T05:42:46.755Z,312.16
2019-03-25T05:43:46.772Z,305.76
2019-03-25T05:44:46.732Z,310.57
2019-03-25T05:45:46.718Z,306.99
2019-03-25T05:46:46.730Z,306.11
2019-03-25T05:47:46.776Z,307.17
2019-03-25T05:48:46.678Z,306.73
2019-03-25T05:49:46.684Z,311.97
2019-03-25T05:50:46.674Z,306.77
2019-03-25T05:51:47.725Z,311.94
2019-03-25T05:52:47.763Z,306.05
2019-03-25T05:53:47.967Z,306.75
2019-03-25T05:54:46.764Z,306.25
2019-03-25T05:55:46.769Z,312.20
2019-03-25T05:56:46.997Z,311.97
2019-03-25T05:57:46.578Z,311.32
2019-03-25T05:58:46.617Z,306.45
2019-03-25T05:59:46.566Z,311.74
2019-03-25T06:00:46.549Z,306.83
2019-03-25T06:01:50.209Z,312.14
2019-03-25T06:02:55.318Z,307.24
2019-03-25T06:03:50.775Z,312.89
2019-03-25T06:04:49.074Z,307.16
2019-03-25T06:05:48.794Z,312.77
2019-03-25T06:06:46.495Z,307.43
2019-03-25T06:07:46.517Z,313.46
2019-03-25T06:08:46.502Z,307.88
2019-03-25T06:09:46.628Z,313.75
2019-03-25T06:10:46.436Z,308.89
2019-03-25T06:11:46.437Z,314.41
2019-03-25T06:12:46.453Z,313.44
2019-03-25T06:13:46.427Z,313.62
2019-03-25T06:14:46.457Z,313.84
2019-03-25T06:15:46.399Z,314.36
2019-03-25T06:16:46.397Z,315.43
2019-03-25T06:17:46.385Z,314.14
2019-03-25T06:18:46.369Z,314.92
2019-03-25T06:19:46.368Z,314.52
2019-03-25T06:20:48.200Z,314.39
2019-03-25T06:21:46.455Z,314.45
2019-03-25T06:22:46.319Z,315.27
2019-03-25T06:23:46.347Z,314.72
2019-03-25T06:24:46.283Z,313.79
2019-03-25T06:25:46.286Z,314.24
2019-03-25T06:26:46.270Z,314.72
2019-03-25T06:27:46.310Z,314.42
2019-03-25T06:28:46.292Z,314.22
2019-03-25T06:29:46.296Z,313.17
2019-03-25T06:30:46.236Z,308.32
2019-03-25T06:31:46.278Z,313.58
2019-03-25T06:32:46.233Z,308.52
2019-03-25T06:33:46.237Z,312.87
2019-03-25T06:34:46.227Z,307.51
2019-03-25T06:35:46.255Z,307.92
2019-03-25T06:36:46.197Z,308.12
2019-03-25T06:37:46.183Z,312.94
2019-03-25T06:38:46.156Z,307.28
2019-03-25T06:39:46.148Z,308.43
2019-03-25T06:40:46.142Z,307.38
2019-03-25T06:41:46.154Z,312.71
2019-03-25T06:42:46.183Z,306.71
2019-03-25T06:43:46.138Z,312.80
2019-03-25T06:44:46.103Z,307.13
2019-03-25T06:45:46.083Z,311.55
2019-03-25T06:46:46.098Z,311.62
2019-03-25T06:47:46.078Z,312.25
2019-03-25T06:48:46.050Z,312.11
2019-03-25T06:49:46.044Z,312.16
2019-03-25T06:50:46.049Z,306.48
2019-03-25T06:51:46.108Z,311.72
2019-03-25T06:52:46.321Z,306.44
2019-03-25T06:53:46.006Z,306.73
2019-03-25T06:54:45.993Z,306.97
2019-03-25T06:55:46.003Z,312.97
2019-03-25T06:56:45.971Z,306.86
2019-03-25T06:57:45.975Z,307.41
2019-03-25T06:58:45.995Z,307.54
2019-03-25T06:59:45.940Z,307.18
2019-03-25T07:00:45.961Z,307.77
2019-03-25T07:01:45.919Z,307.09
2019-03-25T07:02:45.914Z,306.76
2019-03-25T07:03:45.928Z,307.44
2019-03-25T07:04:45.891Z,307.31
2019-03-25T07:05:45.867Z,308.17
2019-03-25T07:06:45.861Z,308.33
2019-03-25T07:07:45.856Z,308.57
2019-03-25T07:08:45.856Z,308.54
2019-03-25T07:09:45.847Z,307.73
2019-03-25T07:10:45.828Z,307.56
2019-03-25T07:11:45.819Z,306.91
2019-03-25T07:12:45.800Z,307.71
2019-03-25T07:13:45.803Z,307.15
2019-03-25T07:14:45.830Z,307.59
2019-03-25T07:15:45.780Z,307.61
2019-03-25T07:16:45.792Z,307.36
2019-03-25T07:17:45.760Z,307.41
2019-03-25T07:18:45.744Z,308.03
2019-03-25T07:19:45.722Z,307.80
2019-03-25T07:20:45.747Z,308.43
2019-03-25T07:21:45.722Z,308.47
2019-03-25T07:22:45.688Z,307.18
2019-03-25T07:23:45.742Z,307.66
2019-03-25T07:24:45.682Z,307.34
2019-03-25T07:25:45.705Z,306.86
2019-03-25T07:26:45.663Z,308.41
2019-03-25T07:27:45.658Z,307.55
2019-03-25T07:28:45.630Z,307.34
2019-03-25T07:29:45.633Z,307.31
2019-03-25T07:30:45.626Z,307.31
2019-03-25T07:31:45.638Z,307.47
2019-03-25T07:32:45.612Z,307.77
2019-03-25T07:33:45.580Z,308.13
2019-03-25T07:34:45.575Z,308.89
2019-03-25T07:35:45.569Z,307.63
2019-03-25T07:36:45.556Z,308.16
2019-03-25T07:37:45.548Z,308.32
2019-03-25T07:38:45.548Z,308.67
2019-03-25T07:39:45.531Z,308.69
2019-03-25T07:40:45.572Z,308.90
2019-03-25T07:41:45.521Z,307.67
2019-03-25T07:42:45.488Z,307.10
2019-03-25T07:43:45.484Z,307.21
2019-03-25T07:44:45.476Z,307.43
2019-03-25T07:45:45.470Z,308.09
2019-03-25T07:46:45.450Z,307.62
2019-03-25T07:47:45.452Z,307.86
2019-03-25T07:48:45.450Z,308.24
2019-03-25T07:49:45.521Z,308.07
2019-03-25T07:50:45.420Z,307.73
2019-03-25T07:51:45.406Z,308.24
2019-03-25T07:52:45.421Z,307.69
2019-03-25T07:53:45.367Z,307.18
2019-03-25T07:54:45.372Z,308.59
2019-03-25T07:55:45.380Z,308.54
2019-03-25T07:56:45.366Z,307.45
2019-03-25T07:57:48.575Z,306.64
2019-03-25T07:58:45.374Z,307.83
2019-03-25T07:59:45.345Z,308.48
2019-03-25T08:00:45.301Z,307.18
2019-03-25T08:01:45.311Z,306.90
2019-03-25T08:02:45.302Z,307.91
2019-03-25T08:03:45.297Z,308.22
2019-03-25T08:04:45.270Z,306.97
2019-03-25T08:05:45.278Z,306.74
2019-03-25T08:06:45.248Z,306.80
2019-03-25T08:07:45.275Z,307.65
2019-03-25T08:08:45.285Z,307.46
2019-03-25T08:09:45.256Z,308.42
2019-03-25T08:10:45.213Z,307.55
2019-03-25T08:11:45.201Z,308.08
2019-03-25T08:12:45.185Z,307.46
2019-03-25T08:13:45.208Z,307.95
2019-03-25T08:14:45.156Z,307.28
2019-03-25T08:15:45.186Z,307.92
2019-03-25T08:16:46.285Z,306.60
2019-03-25T08:17:45.747Z,306.04
2019-03-25T08:18:45.178Z,306.30
2019-03-25T08:19:45.126Z,307.01
2019-03-25T08:20:45.133Z,306.68
2019-03-25T08:21:45.080Z,306.35
2019-03-25T08:22:45.082Z,307.47
2019-03-25T08:23:45.077Z,307.11
2019-03-25T08:24:45.760Z,307.91
2019-03-25T08:25:47.769Z,309.20
2019-03-25T08:26:45.137Z,308.12
2019-03-25T08:27:45.044Z,307.96
2019-03-25T08:28:45.042Z,306.67
2019-03-25T08:29:45.001Z,307.25
2019-03-25T08:30:45.018Z,307.53
2019-03-25T08:31:46.775Z,307.38
2019-03-25T08:32:44.981Z,306.96
2019-03-25T08:33:44.976Z,305.99
2019-03-25T08:34:44.985Z,306.65
2019-03-25T08:35:46.242Z,307.18
2019-03-25T08:36:45.086Z,305.25
2019-03-25T08:37:44.975Z,306.06
2019-03-25T08:38:44.946Z,306.22
2019-03-25T08:39:44.913Z,306.50
2019-03-25T08:40:44.881Z,306.70
2019-03-25T08:41:44.893Z,307.51
2019-03-25T08:42:44.869Z,306.85
2019-03-25T08:43:45.022Z,306.89
2019-03-25T08:44:44.855Z,307.46
2019-03-25T08:45:44.856Z,307.86
2019-03-25T08:46:44.921Z,307.89
2019-03-25T08:47:44.814Z,307.26
2019-03-25T08:48:44.813Z,305.75
2019-03-25T08:49:44.803Z,307.04
2019-03-25T08:50:44.773Z,306.25
2019-03-25T08:51:44.797Z,307.25
2019-03-25T08:52:44.749Z,307.08
2019-03-25T08:53:44.751Z,306.35
2019-03-25T08:54:44.730Z,306.64
2019-03-25T08:55:44.716Z,306.77
2019-03-25T08:56:44.733Z,306.01
2019-03-25T08:57:44.748Z,307.39
2019-03-25T08:58:44.876Z,307.36
2019-03-25T08:59:44.702Z,306.61
2019-03-25T09:00:46.231Z,306.43
2019-03-25T09:01:44.713Z,306.10
2019-03-25T09:02:44.669Z,305.89
2019-03-25T09:03:45.320Z,305.83
2019-03-25T09:04:44.650Z,305.78
2019-03-25T09:05:44.769Z,305.86
2019-03-25T09:06:44.625Z,306.72
2019-03-25T09:07:44.634Z,307.07
2019-03-25T09:08:48.688Z,305.20
2019-03-25T09:09:44.583Z,305.26
2019-03-25T09:10:44.560Z,304.92
2019-03-25T09:11:44.558Z,306.38
2019-03-25T09:12:44.583Z,305.02
2019-03-25T09:13:44.569Z,305.15
2019-03-25T09:14:44.538Z,305.99
2019-03-25T09:15:44.522Z,306.42
2019-03-25T09:16:44.504Z,306.18
2019-03-25T09:17:44.645Z,305.64
2019-03-25T09:18:44.481Z,305.67
2019-03-25T09:19:44.480Z,307.00
2019-03-25T09:20:45.834Z,307.08
2019-03-25T09:21:44.448Z,308.13
2019-03-25T09:22:53.333Z,307.42
2019-03-25T09:23:45.256Z,307.25
2019-03-25T09:24:44.461Z,305.80
2019-03-25T09:25:44.391Z,306.17
2019-03-25T09:26:44.378Z,306.15
2019-03-25T09:27:44.411Z,306.93
2019-03-25T09:28:44.375Z,306.96
2019-03-25T09:29:44.355Z,307.26
2019-03-25T09:30:44.385Z,307.23
2019-03-25T09:31:44.337Z,307.53
2019-03-25T09:32:44.399Z,306.96
2019-03-25T09:33:44.307Z,307.07
2019-03-25T09:34:44.297Z,306.98
2019-03-25T09:35:44.352Z,306.85
2019-03-25T09:36:44.322Z,306.34
2019-03-25T09:37:44.288Z,305.30
2019-03-25T09:38:44.264Z,305.32
2019-03-25T09:39:44.252Z,305.15
2019-03-25T09:40:44.238Z,305.58
2019-03-25T09:41:44.241Z,305.17
2019-03-25T09:42:44.226Z,306.08
2019-03-25T09:43:44.208Z,304.78
2019-03-25T09:44:44.223Z,305.12
2019-03-25T09:45:44.197Z,304.86
2019-03-25T09:46:44.178Z,304.89
2019-03-25T09:47:44.189Z,305.04
2019-03-25T09:48:44.148Z,306.29
2019-03-25T09:49:44.185Z,305.72
2019-03-25T09:50:44.146Z,305.82
2019-03-25T09:51:44.125Z,305.83
2019-03-25T09:52:44.156Z,306.03
2019-03-25T09:53:44.133Z,306.01
2019-03-25T09:54:44.110Z,303.75
2019-03-25T09:55:44.090Z,305.58
2019-03-25T09:56:44.090Z,305.35
2019-03-25T09:57:44.063Z,306.15
2019-03-25T09:58:44.049Z,306.16
2019-03-25T09:59:44.054Z,305.82
2019-03-25T10:00:44.042Z,306.20
2019-03-25T10:01:44.040Z,305.83
2019-03-25T10:02:44.006Z,306.10
2019-03-25T10:03:44.006Z,306.68
2019-03-25T10:04:44.061Z,306.13
2019-03-25T10:05:43.981Z,306.39
2019-03-25T10:06:44.016Z,306.17
2019-03-25T10:07:43.966Z,305.97
2019-03-25T10:08:43.948Z,305.13
2019-03-25T10:09:43.948Z,306.05
2019-03-25T10:10:43.932Z,305.91
2019-03-25T10:11:43.910Z,306.61
2019-03-25T10:12:43.924Z,307.14
2019-03-25T10:13:43.892Z,306.85
2019-03-25T10:14:43.894Z,305.36
2019-03-25T10:15:43.873Z,303.40
2019-03-25T10:16:43.863Z,304.18
2019-03-25T10:17:43.891Z,304.00
2019-03-25T10:18:43.858Z,306.12
2019-03-25T10:19:43.858Z,306.32
2019-03-25T10:20:43.857Z,305.48
2019-03-25T10:21:43.839Z,307.12
2019-03-25T10:22:43.820Z,304.29
2019-03-25T10:23:43.923Z,305.91
2019-03-25T10:24:43.781Z,306.59
2019-03-25T10:25:43.792Z,305.43
2019-03-25T10:26:43.784Z,305.90
2019-03-25T10:27:43.756Z,304.58
2019-03-25T10:28:48.778Z,304.86
2019-03-25T10:29:44.752Z,305.05
2019-03-25T10:30:43.752Z,306.11
2019-03-25T10:31:43.728Z,306.58
2019-03-25T10:32:43.721Z,305.08
2019-03-25T10:33:43.714Z,306.19
2019-03-25T10:34:43.672Z,304.68
2019-03-25T10:35:43.697Z,303.12
2019-03-25T10:36:43.675Z,304.34
2019-03-25T10:37:43.649Z,306.02
2019-03-25T10:38:43.650Z,304.38
2019-03-25T10:39:43.628Z,304.11
2019-03-25T10:40:43.620Z,306.46
2019-03-25T10:41:43.608Z,306.34
2019-03-25T10:42:43.613Z,306.61
2019-03-25T10:43:43.700Z,305.07
2019-03-25T10:44:43.575Z,307.05
2019-03-25T10:45:43.594Z,306.92
2019-03-25T10:46:43.600Z,306.89
2019-03-25T10:47:43.557Z,305.17
2019-03-25T10:48:43.554Z,305.19
2019-03-25T10:49:43.540Z,305.92
2019-03-25T10:50:43.537Z,303.05
2019-03-25T10:51:43.497Z,305.74
2019-03-25T10:52:43.492Z,302.76
2019-03-25T10:53:43.486Z,302.43
2019-03-25T10:54:43.605Z,300.52
2019-03-25T10:55:43.470Z,302.72
2019-03-25T10:56:49.086Z,303.59
2019-03-25T10:57:44.445Z,303.16
2019-03-25T10:58:43.429Z,302.31
2019-03-25T10:59:43.454Z,302.55
2019-03-25T11:00:43.418Z,302.38
2019-03-25T11:01:43.427Z,303.13
2019-03-25T11:02:43.415Z,302.69
2019-03-25T11:03:43.378Z,302.88
2019-03-25T11:04:43.411Z,302.30
2019-03-25T11:05:43.393Z,304.08
2019-03-25T11:06:43.364Z,303.90
2019-03-25T11:08:43.315Z,301.98
2019-03-25T11:09:43.315Z,303.75
2019-03-25T11:10:43.344Z,302.97
2019-03-25T11:11:43.288Z,307.36
2019-03-25T11:12:43.295Z,307.32
2019-03-25T11:13:43.280Z,308.14
2019-03-25T11:14:43.265Z,307.34
2019-03-25T11:15:43.273Z,307.41
2019-03-25T11:16:43.259Z,308.56
2019-03-25T11:17:43.239Z,307.77
2019-03-25T11:18:43.222Z,308.79
2019-03-25T11:19:43.243Z,307.00
2019-03-25T11:20:43.247Z,308.36
2019-03-25T11:21:43.234Z,303.47
2019-03-25T11:22:43.181Z,309.35
2019-03-25T11:23:43.187Z,304.98
2019-03-25T11:24:43.168Z,304.81
2019-03-25T11:25:43.159Z,305.25
2019-03-25T11:26:43.165Z,304.00
2019-03-25T11:27:43.157Z,301.83
2019-03-25T11:28:43.116Z,304.37
2019-03-25T11:29:43.142Z,302.88
2019-03-25T11:30:43.123Z,304.00
2019-03-25T11:31:43.069Z,304.23
2019-03-25T11:32:43.066Z,305.64
2019-03-25T11:33:43.054Z,304.97
2019-03-25T11:34:43.047Z,304.43
2019-03-25T11:35:43.039Z,304.72
2019-03-25T11:36:43.049Z,305.32
2019-03-25T11:37:43.027Z,306.61
2019-03-25T11:38:43.012Z,306.88
2019-03-25T11:39:43.035Z,305.97
2019-03-25T11:40:43.021Z,310.57
2019-03-25T11:41:42.983Z,306.42
2019-03-25T11:42:42.975Z,306.30
2019-03-25T11:43:42.956Z,305.22
2019-03-25T11:44:42.939Z,305.17
2019-03-25T11:45:42.923Z,304.39
2019-03-25T11:46:42.935Z,310.41
2019-03-25T11:47:42.932Z,304.97
2019-03-25T11:48:42.904Z,310.49
2019-03-25T11:49:44.503Z,305.62
2019-03-25T11:50:42.864Z,311.07
2019-03-25T11:51:42.890Z,311.70
2019-03-25T11:52:42.873Z,311.05
2019-03-25T11:53:42.911Z,306.53
2019-03-25T11:54:42.875Z,303.65
2019-03-25T11:55:42.831Z,305.87
2019-03-25T11:56:42.829Z,305.20
2019-03-25T11:57:42.844Z,302.87
2019-03-25T11:58:42.808Z,303.66
2019-03-25T11:59:42.800Z,303.77
2019-03-25T12:00:42.787Z,303.92
2019-03-25T12:01:42.769Z,304.65
2019-03-25T12:02:42.787Z,308.35
2019-03-25T12:03:42.767Z,304.38
2019-03-25T12:04:42.731Z,305.23
2019-03-25T12:05:42.725Z,304.85
2019-03-25T12:06:42.725Z,305.25
2019-03-25T12:07:42.691Z,302.76
2019-03-25T12:08:42.706Z,303.70
2019-03-25T12:09:42.694Z,304.29
2019-03-25T12:10:42.666Z,304.23
2019-03-25T12:11:42.637Z,304.26
2019-03-25T12:12:42.645Z,303.36
2019-03-25T12:13:42.627Z,303.94
2019-03-25T12:14:42.626Z,304.81
2019-03-25T12:15:42.617Z,301.98
2019-03-25T12:16:42.617Z,304.92
2019-03-25T12:17:42.591Z,304.03
2019-03-25T12:18:42.569Z,303.67
2019-03-25T12:19:42.612Z,303.59
2019-03-25T12:20:42.560Z,304.48
2019-03-25T12:21:42.547Z,302.80
2019-03-25T12:22:42.547Z,302.69
2019-03-25T12:23:42.525Z,301.34
2019-03-25T12:24:42.522Z,302.83
2019-03-25T12:25:42.541Z,303.47
2019-03-25T12:26:42.508Z,303.41
2019-03-25T12:27:42.491Z,303.11
2019-03-25T12:28:42.498Z,302.51
2019-03-25T12:29:42.691Z,303.42